Time;durP1;ratioP1;P1;durP2;ratioP2;P2;SDS_P1;SDS_P2;PMS_P1;PMS_P2;Temp;Humidity;BMP_temperature;BMP_pressure;BME280_temperature;BME280_humidity;BME280_pressure;Samples;Min_cycle;Max_cycle;Signal;HPM_P1;HPM_P2
2022/09/16 00:02:10;;;;;;;6.75;1.08;;;;;;;;;;4957025;29;20043;-82
2022/09/16 00:04:36;;;;;;;5.20;0.98;;;;;;;;;;4956579;29;20399;-82
2022/09/16 00:07:02;;;;;;;8.40;1.10;;;;;;;;;;4956684;29;20101;-82
2022/09/16 00:09:28;;;;;;;7.68;0.93;;;;;;;;;;4938951;29;20175;-82
2022/09/16 00:11:54;;;;;;;7.18;1.10;;;;;;;;;;4950295;29;20040;-82
2022/09/16 00:14:20;;;;;;;9.90;1.30;;;;;;;;;;4942016;28;20048;-82
2022/09/16 00:16:46;;;;;;;8.50;1.20;;;;;;;;;;4952954;28;20086;-82
2022/09/16 00:19:12;;;;;;;10.27;1.02;;;;;;;;;;4957269;29;20054;-81
2022/09/16 00:21:38;;;;;;;7.45;1.23;;;;;;;;;;4954975;29;20043;-80
2022/09/16 00:24:05;;;;;;;7.35;1.13;;;;;;;;;;4955579;29;20070;-81
2022/09/16 00:26:31;;;;;;;7.10;1.27;;;;;;;;;;4958682;29;20039;-81
2022/09/16 00:28:57;;;;;;;9.23;1.30;;;;;;;;;;4955588;29;20058;-81
2022/09/16 00:31:23;;;;;;;6.90;1.15;;;;;;;;;;4953839;29;20043;-81
2022/09/16 00:33:49;;;;;;;8.05;1.50;;;;;;;;;;4951909;29;20047;-80
2022/09/16 00:36:16;;;;;;;5.88;1.00;;;;;;;;;;4952353;29;20149;-81
2022/09/16 00:38:43;;;;;;;8.77;1.63;;;;;;;;;;4937028;29;20058;-81
2022/09/16 00:41:14;;;;;;;7.82;1.38;;;;;;;;;;4951766;29;20051;-81
2022/09/16 00:43:48;;;;;;;5.20;1.15;;;;;;;;;;4950804;29;20059;-81
2022/09/16 00:46:14;;;;;;;8.52;1.23;;;;;;;;;;4949843;29;20040;-81
2022/09/16 00:48:40;;;;;;;8.38;1.20;;;;;;;;;;4951152;29;20055;-81
2022/09/16 00:51:08;;;;;;;7.55;1.25;;;;;;;;;;4948392;29;20039;-81
2022/09/16 00:53:37;;;;;;;7.97;1.45;;;;;;;;;;4950162;29;20039;-81
2022/09/16 00:56:05;;;;;;;6.88;1.25;;;;;;;;;;4948420;29;20074;-81
2022/09/16 00:58:48;;;;;;;6.60;1.10;;;;;;;;;;4948371;29;20411;-81
2022/09/16 01:01:14;;;;;;;7.00;1.30;;;;;;;;;;4948699;29;20035;-81
2022/09/16 01:03:49;;;;;;;8.23;1.30;;;;;;;;;;4949432;28;20043;-81
2022/09/16 01:06:16;;;;;;;8.52;1.17;;;;;;;;;;4953212;29;20067;-81
2022/09/16 01:08:43;;;;;;;7.95;1.42;;;;;;;;;;4960149;28;20043;-80
2022/09/16 01:11:09;;;;;;;5.35;0.90;;;;;;;;;;4954280;29;20424;-80
2022/09/16 01:13:35;;;;;;;9.30;1.38;;;;;;;;;;4954361;29;20039;-80
2022/09/16 01:16:37;;;;;;;9.68;1.23;;;;;;;;;;4958932;29;20044;-80
2022/09/16 01:19:03;;;;;;;;;;;;;;;;;;4892637;29;20052;-80
2022/09/16 01:21:30;;;;;;;7.47;1.50;;;;;;;;;;4890475;29;19928;-80
2022/09/16 01:23:56;;;;;;;6.72;1.00;;;;;;;;;;4886431;29;20072;-80
2022/09/16 01:26:41;;;;;;;6.88;1.30;;;;;;;;;;4892329;29;20049;-80
2022/09/16 01:29:26;;;;;;;6.50;1.05;;;;;;;;;;4883967;29;20119;-80
2022/09/16 01:32:06;;;;;;;5.82;0.90;;;;;;;;;;4881092;29;20049;-80
2022/09/16 01:34:50;;;;;;;6.60;0.85;;;;;;;;;;4885091;29;20053;-80
2022/09/16 01:37:35;;;;;;;8.00;1.20;;;;;;;;;;4880322;29;20534;-80
2022/09/16 01:40:15;;;;;;;8.30;1.50;;;;;;;;;;4880546;29;20056;-80
2022/09/16 01:43:00;;;;;;;7.05;1.00;;;;;;;;;;4881994;29;20049;-79
2022/09/16 01:45:44;;;;;;;7.45;1.10;;;;;;;;;;4888138;29;20544;-79
2022/09/16 01:48:19;;;;;;;6.15;0.95;;;;;;;;;;4872398;29;20064;-79
2022/09/16 01:50:48;;;;;;;5.55;0.85;;;;;;;;;;4858208;29;20049;-79
2022/09/16 01:53:14;;;;;;;8.18;0.80;;;;;;;;;;4900208;29;20047;-79
2022/09/16 01:55:48;;;;;;;8.35;1.27;;;;;;;;;;4935951;29;20063;-79
2022/09/16 01:58:17;;;;;;;6.80;1.00;;;;;;;;;;4932817;29;20471;-79
2022/09/16 02:00:44;;;;;;;5.95;1.00;;;;;;;;;;4934214;29;20043;-79
2022/09/16 02:03:13;;;;;;;6.78;1.05;;;;;;;;;;4938379;29;20048;-79
2022/09/16 02:05:45;;;;;;;7.72;1.20;;;;;;;;;;4937103;29;20039;-80
2022/09/16 02:08:14;;;;;;;7.22;0.90;;;;;;;;;;4937060;29;20066;-79
2022/09/16 02:10:44;;;;;;;5.68;1.00;;;;;;;;;;4923232;29;20099;-79
2022/09/16 02:13:16;;;;;;;5.80;0.87;;;;;;;;;;4939907;29;20039;-80
2022/09/16 02:15:44;;;;;;;7.68;1.30;;;;;;;;;;4941188;29;20058;-80
2022/09/16 02:18:13;;;;;;;8.15;1.08;;;;;;;;;;4937914;29;20048;-80
2022/09/16 02:20:42;;;;;;;8.00;1.23;;;;;;;;;;4932127;29;20487;-80
2022/09/16 02:23:19;;;;;;;7.28;1.15;;;;;;;;;;4940044;29;20059;-80
2022/09/16 02:25:48;;;;;;;7.57;1.10;;;;;;;;;;4928796;29;20049;-80
2022/09/16 02:28:17;;;;;;;6.28;0.98;;;;;;;;;;4940317;29;20053;-80
2022/09/16 02:30:45;;;;;;;7.78;1.30;;;;;;;;;;4942471;29;20050;-81
2022/09/16 02:33:12;;;;;;;6.03;1.00;;;;;;;;;;4941793;29;20051;-80
2022/09/16 02:35:39;;;;;;;6.22;0.98;;;;;;;;;;4943791;29;20062;-80
2022/09/16 02:38:18;;;;;;;9.40;1.45;;;;;;;;;;4939647;29;20102;-80
2022/09/16 02:41:05;;;;;;;4.43;0.93;;;;;;;;;;4932735;29;20036;-80
2022/09/16 02:43:32;;;;;;;7.45;1.17;;;;;;;;;;4933921;29;20458;-80
2022/09/16 02:46:04;;;;;;;4.93;0.82;;;;;;;;;;4939550;29;20451;-81
2022/09/16 02:48:53;;;;;;;7.13;1.17;;;;;;;;;;4948732;29;20051;-80
2022/09/16 02:51:32;;;;;;;9.32;1.40;;;;;;;;;;4956320;29;20146;-80
2022/09/16 02:54:01;;;;;;;5.97;1.60;;;;;;;;;;4957345;29;20054;-80
2022/09/16 02:56:35;;;;;;;6.32;1.30;;;;;;;;;;4957101;28;20552;-80
2022/09/16 02:59:02;;;;;;;7.68;1.20;;;;;;;;;;4954641;29;20055;-80
2022/09/16 03:01:30;;;;;;;7.60;1.30;;;;;;;;;;4956252;29;20051;-80
2022/09/16 03:03:57;;;;;;;9.93;1.25;;;;;;;;;;4957340;29;20418;-80
2022/09/16 03:06:24;;;;;;;6.55;1.10;;;;;;;;;;4956209;28;20047;-80
2022/09/16 03:08:50;;;;;;;9.23;1.30;;;;;;;;;;4958097;29;20050;-79
2022/09/16 03:11:19;;;;;;;6.85;1.30;;;;;;;;;;4960066;29;20043;-79
2022/09/16 03:13:45;;;;;;;8.48;1.35;;;;;;;;;;4958605;29;20038;-79
2022/09/16 03:16:31;;;;;;;7.28;1.10;;;;;;;;;;4956337;28;20450;-78
2022/09/16 03:19:00;;;;;;;6.22;1.20;;;;;;;;;;4925306;29;20085;-78
2022/09/16 03:21:29;;;;;;;9.73;1.13;;;;;;;;;;4934296;29;20986;-79
2022/09/16 03:24:02;;;;;;;10.38;1.15;;;;;;;;;;4952906;29;20106;-79
2022/09/16 03:26:34;;;;;;;11.23;1.48;;;;;;;;;;4955066;29;20512;-78
2022/09/16 03:29:06;;;;;;;7.07;1.13;;;;;;;;;;4951679;29;20043;-79
2022/09/16 03:31:32;;;;;;;7.10;1.05;;;;;;;;;;4951943;28;20035;-79
2022/09/16 03:34:04;;;;;;;10.73;1.20;;;;;;;;;;4953922;28;20046;-79
2022/09/16 03:36:33;;;;;;;9.57;1.40;;;;;;;;;;4946039;29;20035;-78
2022/09/16 03:39:00;;;;;;;6.35;1.17;;;;;;;;;;4953215;29;20039;-79
2022/09/16 03:41:28;;;;;;;6.28;1.13;;;;;;;;;;4952334;29;20050;-78
2022/09/16 03:43:55;;;;;;;8.40;1.20;;;;;;;;;;4937139;29;20047;-79
2022/09/16 03:46:21;;;;;;;10.50;1.52;;;;;;;;;;4948248;29;20639;-79
2022/09/16 03:48:47;;;;;;;6.63;1.23;;;;;;;;;;4954470;28;20388;-79
2022/09/16 03:51:14;;;;;;;9.05;1.40;;;;;;;;;;4954928;29;20070;-79
2022/09/16 03:53:40;;;;;;;9.05;1.50;;;;;;;;;;4951603;29;20058;-79
2022/09/16 03:56:06;;;;;;;6.03;1.17;;;;;;;;;;4953138;28;20098;-80
2022/09/16 03:58:32;;;;;;;8.60;1.20;;;;;;;;;;4936837;29;20047;-79
2022/09/16 04:00:58;;;;;;;6.53;1.00;;;;;;;;;;4952862;29;20499;-80
2022/09/16 04:03:24;;;;;;;6.95;1.00;;;;;;;;;;4953979;28;20450;-79
2022/09/16 04:05:54;;;;;;;9.60;1.27;;;;;;;;;;4952408;29;20043;-80
2022/09/16 04:08:20;;;;;;;6.28;1.20;;;;;;;;;;4959295;29;20094;-79
2022/09/16 04:10:53;;;;;;;6.38;1.20;;;;;;;;;;4970744;29;20061;-79
2022/09/16 04:13:19;;;;;;;7.18;1.17;;;;;;;;;;4966885;29;20106;-80
2022/09/16 04:15:45;;;;;;;6.82;1.33;;;;;;;;;;4954663;28;20498;-80
2022/09/16 04:18:11;;;;;;;7.05;1.00;;;;;;;;;;4954069;29;20133;-80
2022/09/16 04:20:37;;;;;;;8.35;0.93;;;;;;;;;;4955503;29;20043;-80
2022/09/16 04:23:03;;;;;;;7.45;1.23;;;;;;;;;;4951037;29;20122;-80
2022/09/16 04:25:29;;;;;;;9.55;1.20;;;;;;;;;;4953767;29;20075;-80
2022/09/16 04:27:56;;;;;;;7.80;1.30;;;;;;;;;;4953075;29;20049;-80
2022/09/16 04:30:22;;;;;;;7.35;1.00;;;;;;;;;;4957459;28;20044;-80
2022/09/16 04:32:52;;;;;;;9.30;1.40;;;;;;;;;;4955120;29;20050;-80
2022/09/16 04:35:19;;;;;;;7.50;1.10;;;;;;;;;;4956850;29;20111;-81
2022/09/16 04:37:45;;;;;;;6.60;1.00;;;;;;;;;;4938031;29;20338;-80
2022/09/16 04:40:11;;;;;;;7.25;1.08;;;;;;;;;;4951959;29;20047;-79
2022/09/16 04:42:37;;;;;;;9.13;1.27;;;;;;;;;;4968660;28;20043;-80
2022/09/16 04:45:04;;;;;;;6.25;1.13;;;;;;;;;;4969028;29;20054;-80
2022/09/16 04:47:30;;;;;;;7.90;1.50;;;;;;;;;;4966365;29;20070;-80
2022/09/16 04:49:56;;;;;;;11.02;1.50;;;;;;;;;;4961450;29;20107;-79
2022/09/16 04:52:23;;;;;;;11.77;1.30;;;;;;;;;;4964747;29;20039;-80
2022/09/16 04:54:49;;;;;;;7.35;1.45;;;;;;;;;;4962600;28;20043;-80
2022/09/16 04:57:15;;;;;;;6.93;1.13;;;;;;;;;;4964453;29;20035;-79
2022/09/16 04:59:41;;;;;;;7.20;1.27;;;;;;;;;;4961614;29;20131;-80
2022/09/16 05:02:07;;;;;;;6.88;1.20;;;;;;;;;;4960499;29;20047;-79
2022/09/16 05:04:33;;;;;;;9.82;1.52;;;;;;;;;;4965073;29;20050;-79
2022/09/16 05:06:59;;;;;;;11.25;1.20;;;;;;;;;;4964562;29;20043;-79
2022/09/16 05:09:24;;;;;;;7.57;1.20;;;;;;;;;;4964645;29;20043;-79
2022/09/16 05:11:51;;;;;;;12.35;1.50;;;;;;;;;;4959828;29;20038;-79
2022/09/16 05:14:17;;;;;;;9.68;1.40;;;;;;;;;;4943770;29;20051;-79
2022/09/16 05:16:44;;;;;;;8.63;1.30;;;;;;;;;;4958602;28;20411;-79
2022/09/16 05:19:10;;;;;;;8.70;1.10;;;;;;;;;;4943803;29;20055;-79
2022/09/16 05:21:37;;;;;;;7.25;1.00;;;;;;;;;;4959157;29;20471;-79
2022/09/16 05:24:06;;;;;;;7.30;1.10;;;;;;;;;;4959944;28;20055;-79
2022/09/16 05:26:34;;;;;;;7.45;1.50;;;;;;;;;;4945690;29;20566;-79
2022/09/16 05:29:01;;;;;;;7.07;1.50;;;;;;;;;;4934653;29;20062;-79
2022/09/16 05:31:29;;;;;;;7.47;1.35;;;;;;;;;;4956095;29;20047;-79
2022/09/16 05:33:59;;;;;;;9.90;1.20;;;;;;;;;;4966332;28;20058;-79
2022/09/16 05:36:26;;;;;;;8.93;1.10;;;;;;;;;;4963845;29;20071;-79
2022/09/16 05:38:52;;;;;;;8.20;1.20;;;;;;;;;;4960737;29;20115;-79
2022/09/16 05:41:18;;;;;;;7.05;1.30;;;;;;;;;;4959577;29;20055;-79
2022/09/16 05:43:44;;;;;;;11.45;1.60;;;;;;;;;;4959364;29;20062;-79
2022/09/16 05:46:13;;;;;;;10.57;1.30;;;;;;;;;;4955342;29;20039;-79
2022/09/16 05:48:39;;;;;;;8.27;1.27;;;;;;;;;;4952255;28;20043;-79
2022/09/16 05:51:05;;;;;;;9.10;1.48;;;;;;;;;;4953209;28;20095;-79
2022/09/16 05:53:32;;;;;;;10.43;1.30;;;;;;;;;;4951068;28;20051;-80
2022/09/16 05:55:59;;;;;;;8.43;1.20;;;;;;;;;;4958479;29;20062;-79
2022/09/16 05:58:26;;;;;;;10.73;1.30;;;;;;;;;;4960441;28;20091;-79
2022/09/16 06:00:57;;;;;;;12.00;1.50;;;;;;;;;;4958062;29;20040;-79
2022/09/16 06:03:23;;;;;;;7.55;1.60;;;;;;;;;;4958503;29;20082;-79
2022/09/16 06:05:49;;;;;;;14.55;1.45;;;;;;;;;;4955758;29;20106;-80
2022/09/16 06:08:15;;;;;;;10.40;1.70;;;;;;;;;;4951311;29;20039;-79
2022/09/16 06:10:41;;;;;;;6.65;1.20;;;;;;;;;;4956799;29;20039;-79
2022/09/16 06:13:07;;;;;;;10.63;1.60;;;;;;;;;;4960834;29;20047;-80
2022/09/16 06:15:34;;;;;;;12.10;1.30;;;;;;;;;;4957189;29;20499;-80
2022/09/16 06:18:00;;;;;;;9.05;1.17;;;;;;;;;;4964254;28;20050;-80
2022/09/16 06:20:26;;;;;;;9.60;1.40;;;;;;;;;;4965264;29;20398;-80
2022/09/16 06:22:52;;;;;;;10.45;1.65;;;;;;;;;;4964148;29;20055;-80
2022/09/16 06:25:18;;;;;;;8.23;1.10;;;;;;;;;;4966590;28;20407;-79
2022/09/16 06:27:44;;;;;;;7.60;0.95;;;;;;;;;;4966765;28;20047;-80
2022/09/16 06:30:11;;;;;;;10.02;1.30;;;;;;;;;;4968237;29;20047;-80
2022/09/16 06:32:37;;;;;;;9.32;1.45;;;;;;;;;;4961683;28;20055;-80
2022/09/16 06:35:03;;;;;;;6.35;1.10;;;;;;;;;;4961895;28;20051;-80
2022/09/16 06:37:29;;;;;;;7.22;1.10;;;;;;;;;;4976911;28;20044;-81
2022/09/16 06:39:55;;;;;;;9.38;1.48;;;;;;;;;;4973434;28;20131;-81
2022/09/16 06:42:21;;;;;;;7.30;1.30;;;;;;;;;;4961990;29;20067;-79
2022/09/16 06:44:47;;;;;;;10.18;1.42;;;;;;;;;;4957946;29;20039;-79
2022/09/16 06:47:13;;;;;;;8.85;1.30;;;;;;;;;;4960242;29;20332;-79
2022/09/16 06:49:39;;;;;;;10.52;1.38;;;;;;;;;;4960361;29;20052;-79
2022/09/16 06:52:05;;;;;;;9.00;1.35;;;;;;;;;;4962207;29;20498;-79
2022/09/16 06:54:31;;;;;;;9.63;1.60;;;;;;;;;;4944181;29;20043;-80
2022/09/16 06:56:57;;;;;;;9.13;1.25;;;;;;;;;;4960754;29;20048;-80
2022/09/16 06:59:23;;;;;;;9.40;1.35;;;;;;;;;;4962857;29;20106;-80
2022/09/16 07:01:51;;;;;;;8.48;1.20;;;;;;;;;;4961076;29;20074;-80
2022/09/16 07:04:17;;;;;;;9.82;1.52;;;;;;;;;;4962448;28;20173;-80
2022/09/16 07:06:44;;;;;;;7.90;1.30;;;;;;;;;;4959150;28;20047;-80
2022/09/16 07:09:11;;;;;;;8.43;1.40;;;;;;;;;;4944687;29;20105;-80
2022/09/16 07:11:36;;;;;;;6.72;1.30;;;;;;;;;;4958664;29;20079;-80
2022/09/16 07:14:03;;;;;;;7.25;1.30;;;;;;;;;;4959229;29;20051;-80
2022/09/16 07:16:29;;;;;;;9.90;1.50;;;;;;;;;;4958395;28;20082;-80
2022/09/16 07:18:57;;;;;;;8.38;1.75;;;;;;;;;;4958131;29;20121;-80
2022/09/16 07:21:27;;;;;;;9.38;1.45;;;;;;;;;;4956741;28;20070;-80
2022/09/16 07:23:54;;;;;;;10.70;1.60;;;;;;;;;;4956141;28;20055;-80
2022/09/16 07:26:22;;;;;;;8.27;1.63;;;;;;;;;;4953966;28;20039;-80
2022/09/16 07:28:49;;;;;;;8.27;1.50;;;;;;;;;;4964034;28;20043;-81
2022/09/16 07:31:26;;;;;;;10.10;1.65;;;;;;;;;;4957526;28;20039;-81
2022/09/16 07:33:53;;;;;;;11.55;1.83;;;;;;;;;;4953374;28;20119;-81
2022/09/16 07:36:20;;;;;;;10.50;1.88;;;;;;;;;;4958984;29;20058;-81
2022/09/16 07:38:47;;;;;;;9.18;1.50;;;;;;;;;;4956568;28;20071;-81
2022/09/16 07:41:14;;;;;;;10.05;1.55;;;;;;;;;;4953681;29;20375;-80
2022/09/16 07:43:41;;;;;;;10.45;1.23;;;;;;;;;;4953734;29;20540;-80
2022/09/16 07:46:09;;;;;;;13.52;1.60;;;;;;;;;;4955419;29;20447;-81
2022/09/16 07:48:35;;;;;;;9.35;1.52;;;;;;;;;;4955232;29;20061;-81
2022/09/16 07:51:03;;;;;;;11.10;1.60;;;;;;;;;;4939103;29;20050;-81
2022/09/16 07:53:30;;;;;;;14.55;1.85;;;;;;;;;;4945283;29;20048;-81
2022/09/16 07:55:56;;;;;;;11.55;2.00;;;;;;;;;;4954942;28;20047;-81
2022/09/16 07:58:22;;;;;;;10.00;1.80;;;;;;;;;;4956690;29;20051;-81
2022/09/16 08:00:49;;;;;;;11.82;1.85;;;;;;;;;;4956562;29;20046;-81
2022/09/16 08:03:15;;;;;;;9.90;1.85;;;;;;;;;;4946539;29;20066;-83
2022/09/16 08:05:42;;;;;;;10.25;1.50;;;;;;;;;;4965769;29;20055;-82
2022/09/16 08:08:08;;;;;;;10.63;1.67;;;;;;;;;;4956426;29;20470;-80
2022/09/16 08:10:35;;;;;;;13.07;2.05;;;;;;;;;;4958313;29;20039;-84
2022/09/16 08:13:01;;;;;;;9.98;1.67;;;;;;;;;;4947012;29;20131;-82
2022/09/16 08:15:27;;;;;;;12.10;2.00;;;;;;;;;;4960814;29;20525;-84
2022/09/16 08:17:54;;;;;;;11.93;2.00;;;;;;;;;;4959028;28;20474;-82
2022/09/16 08:20:20;;;;;;;14.45;1.70;;;;;;;;;;4958637;29;20136;-84
2022/09/16 08:22:46;;;;;;;9.98;1.80;;;;;;;;;;4957504;29;20478;-81
2022/09/16 08:25:12;;;;;;;13.70;2.05;;;;;;;;;;4954123;28;20043;-83
2022/09/16 08:27:38;;;;;;;9.52;1.60;;;;;;;;;;4958388;28;20058;-83
2022/09/16 08:30:04;;;;;;;10.52;1.48;;;;;;;;;;4951168;29;20062;-86
2022/09/16 08:32:30;;;;;;;14.63;2.10;;;;;;;;;;4958217;28;20062;-83
2022/09/16 08:34:57;;;;;;;13.80;1.85;;;;;;;;;;4959583;29;20039;-83
2022/09/16 08:37:23;;;;;;;13.30;2.22;;;;;;;;;;4958298;29;20047;-79
2022/09/16 08:39:50;;;;;;;11.82;2.08;;;;;;;;;;4942543;29;20051;-84
2022/09/16 08:42:35;;;;;;;12.07;1.80;;;;;;;;;;4942795;29;20133;-80
2022/09/16 08:45:04;;;;;;;13.48;2.15;;;;;;;;;;4965659;29;20062;-84
2022/09/16 08:47:37;;;;;;;13.13;2.28;;;;;;;;;;4966307;29;20470;-84
2022/09/16 08:50:05;;;;;;;10.35;1.80;;;;;;;;;;4940464;29;20518;-82
2022/09/16 08:52:35;;;;;;;12.07;2.22;;;;;;;;;;4956815;28;20061;-82
2022/09/16 08:55:05;;;;;;;10.07;2.00;;;;;;;;;;4955622;28;20047;-82
2022/09/16 08:57:33;;;;;;;17.20;1.95;;;;;;;;;;4960052;28;20047;-84
2022/09/16 09:00:11;;;;;;;14.98;2.13;;;;;;;;;;4955216;29;20086;-83
2022/09/16 09:02:51;;;;;;;13.35;1.80;;;;;;;;;;4957016;29;20134;-83
2022/09/16 09:05:29;;;;;;;16.75;2.25;;;;;;;;;;4961108;29;20043;-85
2022/09/16 09:08:03;;;;;;;13.30;2.30;;;;;;;;;;4958757;29;20503;-84
2022/09/16 09:10:45;;;;;;;12.15;2.22;;;;;;;;;;4951336;28;20043;-84
2022/09/16 09:13:31;;;;;;;10.30;2.13;;;;;;;;;;4940349;29;20043;-84
2022/09/16 09:16:01;;;;;;;14.63;2.33;;;;;;;;;;4957071;29;20051;-84
2022/09/16 09:18:29;;;;;;;10.52;1.88;;;;;;;;;;4960518;28;20047;-85
2022/09/16 09:21:15;;;;;;;11.40;1.95;;;;;;;;;;4965076;28;20044;-85
2022/09/16 09:23:50;;;;;;;12.85;2.10;;;;;;;;;;4972529;29;20106;-83
2022/09/16 09:26:18;;;;;;;14.13;1.70;;;;;;;;;;4967899;28;20051;-85
2022/09/16 09:29:04;;;;;;;13.35;2.15;;;;;;;;;;4966249;28;20464;-83
2022/09/16 09:31:32;;;;;;;11.57;1.67;;;;;;;;;;4955399;29;20048;-84
2022/09/16 09:33:58;;;;;;;12.30;2.47;;;;;;;;;;4964364;29;20047;-84
2022/09/16 09:36:36;;;;;;;16.10;2.10;;;;;;;;;;4944719;29;20134;-85
2022/09/16 09:39:11;;;;;;;17.13;2.40;;;;;;;;;;4958666;29;20137;-83
2022/09/16 09:41:44;;;;;;;13.35;1.90;;;;;;;;;;4962704;29;20052;-85
2022/09/16 09:44:19;;;;;;;17.52;2.30;;;;;;;;;;4964998;29;20360;-81
2022/09/16 09:46:47;;;;;;;11.45;1.83;;;;;;;;;;4968215;28;20043;-82
2022/09/16 09:49:25;;;;;;;12.10;2.00;;;;;;;;;;4965328;29;20059;-82
2022/09/16 09:51:58;;;;;;;11.93;1.85;;;;;;;;;;4959411;28;20079;-81
2022/09/16 09:54:25;;;;;;;10.52;1.80;;;;;;;;;;4969618;28;20027;-81
2022/09/16 09:56:53;;;;;;;10.48;1.80;;;;;;;;;;4972925;28;20024;-80
2022/09/16 09:59:38;;;;;;;10.80;1.58;;;;;;;;;;4959252;28;20027;-80
2022/09/16 10:02:13;;;;;;;12.40;1.80;;;;;;;;;;4981263;28;20034;-79
2022/09/16 10:04:39;;;;;;;10.55;1.90;;;;;;;;;;4962745;28;20067;-79
2022/09/16 10:07:06;;;;;;;9.85;1.70;;;;;;;;;;4981318;28;20038;-79
2022/09/16 10:09:33;;;;;;;13.68;1.98;;;;;;;;;;4971105;28;20031;-78
2022/09/16 10:12:00;;;;;;;9.55;1.75;;;;;;;;;;4979829;28;20031;-78
2022/09/16 10:14:31;;;;;;;10.57;1.98;;;;;;;;;;4963806;28;20054;-78
2022/09/16 10:16:59;;;;;;;8.82;1.42;;;;;;;;;;4965531;28;20035;-80
2022/09/16 10:19:27;;;;;;;10.07;2.25;;;;;;;;;;4979789;28;20083;-80
2022/09/16 10:21:54;;;;;;;16.05;1.90;;;;;;;;;;4973525;28;20149;-80
2022/09/16 10:24:26;;;;;;;10.90;1.88;;;;;;;;;;4979720;28;20111;-80
2022/09/16 10:26:52;;;;;;;12.35;1.67;;;;;;;;;;4961639;28;20047;-80
2022/09/16 10:29:18;;;;;;;11.45;1.70;;;;;;;;;;4972160;28;20058;-79
2022/09/16 10:31:44;;;;;;;15.90;2.45;;;;;;;;;;4981566;28;20030;-79
2022/09/16 10:34:31;;;;;;;10.15;1.88;;;;;;;;;;4977505;28;20047;-80
2022/09/16 10:37:01;;;;;;;8.73;1.70;;;;;;;;;;4978962;28;20020;-81
2022/09/16 10:39:28;;;;;;;12.00;1.63;;;;;;;;;;4979559;28;20031;-81
2022/09/16 10:41:54;;;;;;;12.52;2.00;;;;;;;;;;4972876;28;20031;-80
2022/09/16 10:44:25;;;;;;;7.90;1.70;;;;;;;;;;4972869;28;20029;-80
2022/09/16 10:46:57;;;;;;;10.10;1.60;;;;;;;;;;4980751;28;20103;-80
2022/09/16 10:49:37;;;;;;;10.50;1.80;;;;;;;;;;4979996;28;20090;-79
2022/09/16 10:52:07;;;;;;;12.57;1.90;;;;;;;;;;4980326;28;20059;-81
2022/09/16 10:54:33;;;;;;;9.90;1.92;;;;;;;;;;4947227;28;20027;-79
2022/09/16 10:56:59;;;;;;;14.40;2.13;;;;;;;;;;4972897;28;20046;-80
2022/09/16 10:59:25;;;;;;;8.65;1.85;;;;;;;;;;4959867;28;20061;-81
2022/09/16 11:02:08;;;;;;;9.27;1.50;;;;;;;;;;4981064;28;20042;-81
2022/09/16 11:04:46;;;;;;;13.18;2.20;;;;;;;;;;4980648;28;20035;-80
2022/09/16 11:07:33;;;;;;;9.55;1.98;;;;;;;;;;4959502;29;20058;-82
2022/09/16 11:10:14;;;;;;;10.15;2.00;;;;;;;;;;4951008;29;20051;-82
2022/09/16 11:12:59;;;;;;;12.23;2.30;;;;;;;;;;4955164;28;20116;-82
2022/09/16 11:15:31;;;;;;;13.00;2.00;;;;;;;;;;4983164;28;20026;-81
2022/09/16 11:18:08;;;;;;;12.75;1.60;;;;;;;;;;4948900;28;20107;-79
2022/09/16 11:20:37;;;;;;;10.85;1.88;;;;;;;;;;4965985;28;20129;-79
2022/09/16 11:23:12;;;;;;;12.40;1.88;;;;;;;;;;4941531;29;20050;-81
2022/09/16 11:25:41;;;;;;;11.93;1.83;;;;;;;;;;4957426;29;20047;-81
2022/09/16 11:28:07;;;;;;;10.98;1.50;;;;;;;;;;4955183;29;20533;-82
2022/09/16 11:30:37;;;;;;;10.13;1.58;;;;;;;;;;4959900;29;20039;-83
2022/09/16 11:33:14;;;;;;;11.97;1.77;;;;;;;;;;4949055;29;20087;-81
2022/09/16 11:35:46;;;;;;;10.20;1.63;;;;;;;;;;4956378;29;20393;-81
2022/09/16 11:38:37;;;;;;;10.60;1.48;;;;;;;;;;4957123;29;20086;-80
2022/09/16 11:41:24;;;;;;;11.15;1.58;;;;;;;;;;4940963;29;20058;-75
2022/09/16 11:44:01;;;;;;;10.50;1.80;;;;;;;;;;4944964;28;20106;-77
2022/09/16 11:46:39;;;;;;;8.70;1.33;;;;;;;;;;4967335;28;20086;-81
2022/09/16 11:49:05;;;;;;;12.40;1.50;;;;;;;;;;4939651;29;20048;-78
2022/09/16 11:51:37;;;;;;;11.25;1.50;;;;;;;;;;4939071;29;20055;-79
2022/09/16 11:54:08;;;;;;;9.23;1.65;;;;;;;;;;4956913;29;20410;-80
2022/09/16 11:56:37;;;;;;;12.27;1.70;;;;;;;;;;4960213;28;20043;-78
2022/09/16 11:59:03;;;;;;;8.30;1.38;;;;;;;;;;4960816;29;20039;-80
2022/09/16 12:01:36;;;;;;;10.73;1.42;;;;;;;;;;4961914;29;20043;-79
2022/09/16 12:04:25;;;;;;;10.02;1.50;;;;;;;;;;4960434;28;20074;-77
2022/09/16 12:06:59;;;;;;;11.25;1.60;;;;;;;;;;4958819;28;20054;-79
2022/09/16 12:09:29;;;;;;;10.15;1.75;;;;;;;;;;4940980;29;20503;-80
2022/09/16 12:11:58;;;;;;;9.82;1.42;;;;;;;;;;4958037;28;20043;-81
2022/09/16 12:14:38;;;;;;;9.18;1.70;;;;;;;;;;5154807;27;20126;-77
2022/09/16 12:17:07;;;;;;;9.38;1.77;;;;;;;;;;5147595;27;20055;-80
2022/09/16 12:19:35;;;;;;;13.70;1.83;;;;;;;;;;5115666;28;20044;-81
2022/09/16 12:22:09;;;;;;;10.38;1.80;;;;;;;;;;5125448;28;20051;-79
2022/09/16 12:24:54;;;;;;;11.77;1.70;;;;;;;;;;5126731;28;20146;-79
2022/09/16 12:27:39;;;;;;;10.20;1.70;;;;;;;;;;5122871;27;20074;-80
2022/09/16 12:30:11;;;;;;;13.77;1.98;;;;;;;;;;5123604;28;20043;-81
2022/09/16 12:32:42;;;;;;;13.50;1.92;;;;;;;;;;5126580;28;20554;-77
2022/09/16 12:35:20;;;;;;;8.15;2.15;;;;;;;;;;5127373;28;20043;-81
2022/09/16 12:37:48;;;;;;;10.32;1.45;;;;;;;;;;5130505;28;20036;-81
2022/09/16 12:40:16;;;;;;;12.77;1.50;;;;;;;;;;5113690;28;20047;-82
2022/09/16 12:43:01;;;;;;;11.70;1.33;;;;;;;;;;5118830;28;20435;-81
2022/09/16 12:45:39;;;;;;;8.93;1.55;;;;;;;;;;5131811;27;20042;-79
2022/09/16 12:48:29;;;;;;;13.38;1.67;;;;;;;;;;5139078;28;20028;-79
2022/09/16 12:51:15;;;;;;;10.05;1.60;;;;;;;;;;5139794;28;20050;-76
2022/09/16 12:53:41;;;;;;;11.35;1.52;;;;;;;;;;5119095;28;20056;-78
2022/09/16 12:56:13;;;;;;;11.15;1.77;;;;;;;;;;5117409;27;20040;-78
2022/09/16 12:58:55;;;;;;;14.05;1.73;;;;;;;;;;5129941;28;20077;-79
2022/09/16 13:01:29;;;;;;;13.75;1.92;;;;;;;;;;5130409;28;20119;-78
2022/09/16 13:04:02;;;;;;;12.43;2.05;;;;;;;;;;5139148;28;20036;-76
2022/09/16 13:06:37;;;;;;;13.80;2.38;;;;;;;;;;5127345;28;20053;-78
2022/09/16 13:09:15;;;;;;;15.60;2.35;;;;;;;;;;5135832;28;20398;-79
2022/09/16 13:11:42;;;;;;;12.88;2.47;;;;;;;;;;5117873;27;20040;-76
2022/09/16 13:14:20;;;;;;;12.50;2.28;;;;;;;;;;5117264;28;20115;-77
2022/09/16 13:16:52;;;;;;;15.68;2.28;;;;;;;;;;5135632;28;20056;-80
2022/09/16 13:19:18;;;;;;;12.35;2.05;;;;;;;;;;5137024;28;20373;-78
2022/09/16 13:21:45;;;;;;;15.23;2.47;;;;;;;;;;5132545;27;20409;-77
2022/09/16 13:24:11;;;;;;;15.32;2.55;;;;;;;;;;5120627;28;20044;-78
2022/09/16 13:26:42;;;;;;;13.65;2.20;;;;;;;;;;5109006;28;20047;-79
2022/09/16 13:29:24;;;;;;;22.40;3.07;;;;;;;;;;5103131;28;20039;-81
2022/09/16 13:31:50;;;;;;;15.02;2.83;;;;;;;;;;5111485;28;20150;-79
2022/09/16 13:34:18;;;;;;;20.52;2.88;;;;;;;;;;5113346;28;20097;-80
2022/09/16 13:36:44;;;;;;;12.80;2.30;;;;;;;;;;5114367;28;20043;-80
2022/09/16 13:39:12;;;;;;;13.30;2.33;;;;;;;;;;5114889;28;20089;-79
2022/09/16 13:41:38;;;;;;;12.90;2.58;;;;;;;;;;5110352;28;20071;-79
2022/09/16 13:44:24;;;;;;;16.40;6.53;;;;;;;;;;5103399;28;20036;-79
2022/09/16 13:46:50;;;;;;;18.45;4.82;;;;;;;;;;5095031;28;20044;-79
2022/09/16 13:49:22;;;;;;;15.15;2.70;;;;;;;;;;5095852;28;20040;-79
2022/09/16 13:51:49;;;;;;;15.77;2.90;;;;;;;;;;5094491;28;20040;-79
2022/09/16 13:54:21;;;;;;;11.35;2.00;;;;;;;;;;5096401;28;20834;-79
2022/09/16 13:56:53;;;;;;;11.38;1.88;;;;;;;;;;5110777;28;20039;-79
2022/09/16 13:59:38;;;;;;;11.30;2.30;;;;;;;;;;5098830;28;20437;-78
2022/09/16 14:02:07;;;;;;;7.68;1.23;;;;;;;;;;5113134;28;20044;-79
2022/09/16 14:04:57;;;;;;;10.63;1.30;;;;;;;;;;5113240;28;20494;-79
2022/09/16 14:07:35;;;;;;;8.82;1.20;;;;;;;;;;5110997;28;20055;-79
2022/09/16 14:10:17;;;;;;;9.10;1.25;;;;;;;;;;5109919;28;20036;-79
2022/09/16 14:12:52;;;;;;;10.38;1.40;;;;;;;;;;5113821;28;20055;-79
2022/09/16 14:15:19;;;;;;;8.02;1.27;;;;;;;;;;5103381;28;20050;-79
2022/09/16 14:17:50;;;;;;;7.30;1.45;;;;;;;;;;5109454;28;20036;-79
2022/09/16 14:20:19;;;;;;;10.70;1.55;;;;;;;;;;5101663;28;20084;-79
2022/09/16 14:22:45;;;;;;;7.35;1.38;;;;;;;;;;5107278;28;20053;-79
2022/09/16 14:25:28;;;;;;;13.07;1.80;;;;;;;;;;5113183;28;20474;-79
2022/09/16 14:28:07;;;;;;;11.05;1.67;;;;;;;;;;5113927;28;20059;-79
2022/09/16 14:30:33;;;;;;;8.32;1.55;;;;;;;;;;5111939;28;20047;-79
2022/09/16 14:33:01;;;;;;;9.60;1.60;;;;;;;;;;5112912;28;20043;-79
2022/09/16 14:35:27;;;;;;;9.60;1.48;;;;;;;;;;5114537;28;20054;-79
2022/09/16 14:37:55;;;;;;;9.32;1.63;;;;;;;;;;5117558;28;20122;-78
2022/09/16 14:40:22;;;;;;;9.55;1.42;;;;;;;;;;5106602;28;20053;-79
2022/09/16 14:42:51;;;;;;;9.40;1.85;;;;;;;;;;5098798;28;20051;-78
2022/09/16 14:45:17;;;;;;;13.52;2.08;;;;;;;;;;5097851;28;20177;-79
2022/09/16 14:47:43;;;;;;;10.10;1.92;;;;;;;;;;5092367;28;20036;-78
2022/09/16 14:50:19;;;;;;;9.50;2.22;;;;;;;;;;5112625;28;20122;-78
2022/09/16 14:52:55;;;;;;;12.30;2.22;;;;;;;;;;5113165;28;20428;-77
2022/09/16 14:55:23;;;;;;;12.93;2.13;;;;;;;;;;5113811;28;20045;-77
2022/09/16 14:57:49;;;;;;;12.40;2.08;;;;;;;;;;5111636;28;20590;-77